Time;durP1;ratioP1;P1;durP2;ratioP2;P2;SDS_P1;SDS_P2;PMS_P1;PMS_P2;Temp;Humidity;BMP_temperature;BMP_pressure;BME280_temperature;BME280_humidity;BME280_pressure;Samples;Min_cycle;Max_cycle;Signal;HPM_P1;HPM_P2
2022/03/16 00:02:23;;;;;;;87.05;48.33;;;5.50;99.90;;;;;;5132476;27;20041;-77
2022/03/16 00:04:54;;;;;;;85.90;49.97;;;5.50;99.90;;;;;;5098672;28;20096;-77
2022/03/16 00:07:20;;;;;;;98.97;49.20;;;5.60;99.90;;;;;;5114443;28;20035;-77
2022/03/16 00:09:47;;;;;;;89.80;49.95;;;5.60;99.90;;;;;;5132573;27;20067;-77
2022/03/16 00:12:13;;;;;;;86.13;50.17;;;5.60;99.90;;;;;;5098401;28;20466;-77
2022/03/16 00:14:40;;;;;;;96.45;52.28;;;5.60;99.90;;;;;;5115205;28;20035;-77
2022/03/16 00:17:06;;;;;;;97.53;52.15;;;5.70;99.90;;;;;;5097943;28;20040;-77
2022/03/16 00:19:33;;;;;;;100.93;53.13;;;5.70;99.90;;;;;;5115216;28;20058;-77
2022/03/16 00:22:00;;;;;;;101.32;52.13;;;5.70;99.90;;;;;;5114131;28;20043;-77
2022/03/16 00:24:26;;;;;;;100.35;53.17;;;5.70;99.90;;;;;;5098084;28;20039;-77
2022/03/16 00:26:52;;;;;;;99.00;53.97;;;5.70;99.90;;;;;;5080378;28;20147;-77
2022/03/16 00:29:17;;;;;;;96.72;53.10;;;5.70;99.90;;;;;;5098035;28;20561;-77
2022/03/16 00:31:43;;;;;;;109.38;54.28;;;5.70;99.90;;;;;;5097597;28;20128;-77
2022/03/16 00:34:09;;;;;;;103.38;53.50;;;5.70;99.90;;;;;;5097811;28;20032;-77
2022/03/16 00:36:35;;;;;;;100.93;52.80;;;5.70;99.90;;;;;;5097030;28;20770;-77
2022/03/16 00:39:01;;;;;;;103.80;53.33;;;5.70;99.90;;;;;;5098145;28;20535;-77
2022/03/16 00:41:26;;;;;;;102.93;53.47;;;6.00;99.90;;;;;;5114521;28;20043;-77
2022/03/16 00:43:53;;;;;;;103.93;54.08;;;5.80;99.90;;;;;;5114715;28;20508;-77
2022/03/16 00:46:19;;;;;;;105.70;54.22;;;5.80;99.90;;;;;;5097427;28;20105;-77
2022/03/16 00:48:45;;;;;;;108.75;55.22;;;6.00;99.90;;;;;;5114512;28;20512;-77
2022/03/16 00:51:11;;;;;;;103.05;51.85;;;5.80;99.90;;;;;;5097448;28;20089;-77
2022/03/16 00:53:39;;;;;;;106.55;54.60;;;5.80;99.90;;;;;;5096815;28;20043;-77
2022/03/16 00:56:06;;;;;;;106.78;55.35;;;5.80;99.90;;;;;;5114520;28;20115;-77
2022/03/16 00:58:32;;;;;;;105.90;55.25;;;5.80;99.90;;;;;;5114231;28;20062;-77
2022/03/16 01:00:59;;;;;;;103.72;54.53;;;5.90;99.90;;;;;;5114370;28;20039;-77
2022/03/16 01:03:26;;;;;;;99.75;53.05;;;5.90;99.90;;;;;;5114291;28;20039;-77
2022/03/16 01:05:52;;;;;;;100.78;51.88;;;5.90;99.90;;;;;;5100911;28;20072;-77
2022/03/16 01:08:17;;;;;;;94.63;51.38;;;5.80;99.90;;;;;;5096374;28;20416;-77
2022/03/16 01:10:43;;;;;;;96.78;52.15;;;5.70;99.90;;;;;;5113990;28;20062;-77
2022/03/16 01:13:09;;;;;;;92.18;50.88;;;5.70;99.90;;;;;;5097211;28;20093;-77
2022/03/16 01:15:35;;;;;;;93.88;51.47;;;5.60;99.90;;;;;;5114284;28;20443;-77
2022/03/16 01:18:01;;;;;;;92.95;51.83;;;5.60;99.90;;;;;;5097179;28;20085;-77
2022/03/16 01:20:28;;;;;;;101.13;53.70;;;5.40;99.90;;;;;;5080174;28;20044;-77
2022/03/16 01:22:53;;;;;;;115.47;52.75;;;5.40;99.90;;;;;;5112975;28;20054;-77
2022/03/16 01:25:19;;;;;;;153.45;48.85;;;5.40;99.90;;;;;;5096784;28;20122;-77
2022/03/16 01:27:45;;;;;;;303.13;51.60;;;5.40;99.90;;;;;;5096821;28;20062;-77
2022/03/16 01:30:13;;;;;;;116.22;51.30;;;5.40;99.90;;;;;;5113771;28;20042;-77
2022/03/16 01:32:39;;;;;;;110.88;53.80;;;5.40;99.90;;;;;;5096477;28;20031;-77
2022/03/16 01:35:05;;;;;;;114.75;54.83;;;5.40;99.90;;;;;;5096763;28;20062;-77
2022/03/16 01:37:31;;;;;;;117.43;55.58;;;5.30;99.90;;;;;;5112001;28;20044;-77
2022/03/16 01:39:57;;;;;;;121.70;59.50;;;5.30;99.90;;;;;;5096253;28;20036;-77
2022/03/16 01:42:23;;;;;;;126.20;60.85;;;5.30;99.90;;;;;;5095747;28;20043;-77
2022/03/16 01:44:51;;;;;;;125.50;59.88;;;5.40;99.90;;;;;;5079702;28;20071;-77
2022/03/16 01:47:18;;;;;;;133.30;64.15;;;5.40;99.90;;;;;;5096297;28;20035;-77
2022/03/16 01:49:44;;;;;;;132.30;66.53;;;5.40;99.90;;;;;;5096637;28;20376;-77
2022/03/16 01:52:11;;;;;;;130.30;66.65;;;5.40;99.90;;;;;;5095626;28;20403;-77
2022/03/16 01:54:40;;;;;;;135.93;68.13;;;5.40;99.90;;;;;;5113239;28;20126;-77
2022/03/16 01:57:08;;;;;;;109.40;59.42;;;5.30;99.90;;;;;;5096199;28;20042;-77
2022/03/16 01:59:33;;;;;;;92.60;48.00;;;5.20;99.90;;;;;;5113249;28;20078;-77
2022/03/16 02:01:59;;;;;;;78.22;47.20;;;5.10;99.90;;;;;;5113332;28;20031;-77
2022/03/16 02:04:25;;;;;;;71.72;46.00;;;5.00;99.90;;;;;;5113045;28;20035;-77
2022/03/16 02:06:51;;;;;;;83.47;49.15;;;4.90;99.90;;;;;;5095354;28;20387;-77
2022/03/16 02:09:16;;;;;;;70.60;45.00;;;5.00;99.90;;;;;;5095849;28;20073;-77
2022/03/16 02:11:42;;;;;;;62.97;40.67;;;4.80;99.90;;;;;;5112806;28;20570;-77
2022/03/16 02:14:08;;;;;;;193.95;60.30;;;4.90;99.90;;;;;;5062570;28;20039;-77
2022/03/16 02:16:34;;;;;;;132.80;53.78;;;4.70;99.90;;;;;;5079068;28;20398;-77
2022/03/16 02:19:00;;;;;;;88.43;50.72;;;4.60;99.90;;;;;;5095961;28;20043;-77
2022/03/16 02:21:28;;;;;;;81.75;46.92;;;4.60;99.90;;;;;;5094833;28;20151;-77
2022/03/16 02:23:53;;;;;;;123.00;58.47;;;4.50;99.90;;;;;;5095883;28;20104;-77
2022/03/16 02:26:25;;;;;;;179.60;72.32;;;4.40;99.90;;;;;;5078925;28;20487;-77
2022/03/16 02:28:51;;;;;;;66.95;42.13;;;4.40;99.90;;;;;;5112852;28;20541;-77
2022/03/16 02:31:17;;;;;;;117.60;59.10;;;4.40;99.90;;;;;;5085658;27;20043;-77
2022/03/16 02:33:43;;;;;;;73.13;45.53;;;4.30;99.90;;;;;;5099009;27;20401;-77
2022/03/16 02:36:09;;;;;;;77.68;46.35;;;4.30;99.90;;;;;;5099334;27;20375;-77
2022/03/16 02:38:36;;;;;;;62.05;40.63;;;4.30;99.90;;;;;;5114996;27;20046;-77
2022/03/16 02:41:02;;;;;;;105.60;55.28;;;4.30;99.90;;;;;;5133029;27;20095;-77
2022/03/16 02:43:28;;;;;;;61.95;41.35;;;4.30;99.90;;;;;;5116051;27;20039;-77
2022/03/16 02:45:54;;;;;;;60.72;39.30;;;4.20;99.90;;;;;;5115815;27;20043;-77
2022/03/16 02:48:20;;;;;;;50.95;34.92;;;4.20;99.90;;;;;;5115879;27;20520;-77
2022/03/16 02:50:47;;;;;;;53.92;37.65;;;4.20;99.90;;;;;;5132732;27;20035;-77
2022/03/16 02:53:12;;;;;;;258.92;57.10;;;4.20;99.90;;;;;;5114710;27;20039;-77
2022/03/16 02:55:38;;;;;;;398.38;68.15;;;4.00;99.90;;;;;;5099099;27;20046;-77
2022/03/16 02:58:04;;;;;;;1320.00;133.38;;;4.00;99.90;;;;;;5115760;28;20095;-77
2022/03/16 03:00:29;;;;;;;75.97;45.22;;;4.00;99.90;;;;;;5115667;27;20124;-77
2022/03/16 03:02:55;;;;;;;61.90;40.10;;;4.00;99.90;;;;;;5115619;28;20108;-77
2022/03/16 03:05:22;;;;;;;95.32;36.38;;;4.00;99.90;;;;;;5132665;28;20130;-77
2022/03/16 03:07:48;;;;;;;51.53;34.90;;;4.10;99.90;;;;;;5094673;28;20502;-77
2022/03/16 03:10:14;;;;;;;48.55;33.92;;;4.10;99.90;;;;;;5111940;28;20090;-77
2022/03/16 03:12:39;;;;;;;94.63;30.42;;;4.30;99.90;;;;;;5111966;28;20123;-77
2022/03/16 03:15:09;;;;;;;40.95;29.33;;;3.90;99.90;;;;;;5095143;28;20040;-77
2022/03/16 03:17:35;;;;;;;55.05;30.30;;;3.90;99.90;;;;;;5094967;28;20101;-77
2022/03/16 03:20:01;;;;;;;71.40;27.98;;;3.90;99.90;;;;;;5095465;28;20434;-77
2022/03/16 03:22:28;;;;;;;40.85;29.95;;;4.00;99.90;;;;;;5094208;28;20085;-77
2022/03/16 03:24:55;;;;;;;35.65;27.00;;;3.90;99.90;;;;;;5095097;28;20070;-77
2022/03/16 03:27:21;;;;;;;32.85;26.15;;;3.90;99.90;;;;;;5111856;28;20039;-77
2022/03/16 03:29:46;;;;;;;34.45;25.60;;;4.00;99.90;;;;;;5095248;28;20051;-77
2022/03/16 03:32:12;;;;;;;31.50;24.17;;;4.10;99.90;;;;;;5111745;28;20039;-77
2022/03/16 03:34:39;;;;;;;29.77;23.00;;;4.00;99.90;;;;;;5095335;28;20075;-77
2022/03/16 03:37:05;;;;;;;27.70;22.40;;;3.90;99.90;;;;;;5094325;28;20119;-77
2022/03/16 03:39:32;;;;;;;29.52;20.20;;;3.90;99.90;;;;;;5111970;28;20039;-77
2022/03/16 03:41:58;;;;;;;66.60;18.23;;;3.90;99.90;;;;;;5098429;28;20085;-77
2022/03/16 03:44:24;;;;;;;123.43;20.60;;;3.90;99.90;;;;;;5094987;28;20047;-77
2022/03/16 03:46:50;;;;;;;199.60;26.98;;;3.70;99.90;;;;;;5094778;28;20044;-77
2022/03/16 03:49:16;;;;;;;147.68;23.77;;;3.50;99.90;;;;;;5111838;28;20035;-77
2022/03/16 03:51:41;;;;;;;401.08;40.83;;;3.30;99.90;;;;;;5093949;28;20040;-77
2022/03/16 03:54:07;;;;;;;374.42;38.30;;;3.10;99.90;;;;;;5111806;28;20054;-77
2022/03/16 03:56:33;;;;;;;275.45;31.25;;;3.00;99.90;;;;;;5111886;28;20086;-77
2022/03/16 03:58:58;;;;;;;165.90;26.70;;;3.00;99.90;;;;;;5094999;28;20039;-77
2022/03/16 04:01:24;;;;;;;103.88;25.50;;;3.00;99.90;;;;;;5112492;28;20047;-77
2022/03/16 04:03:50;;;;;;;71.80;23.80;;;3.00;99.90;;;;;;5098575;28;20039;-77
2022/03/16 04:06:16;;;;;;;148.55;25.33;;;3.00;99.90;;;;;;5098078;28;20039;-77
2022/03/16 04:08:45;;;;;;;33.53;22.17;;;2.90;99.90;;;;;;5097844;28;20043;-77
2022/03/16 04:11:11;;;;;;;24.67;21.20;;;2.90;99.90;;;;;;5115195;28;20593;-77
2022/03/16 04:13:37;;;;;;;27.95;21.20;;;2.90;99.90;;;;;;5098445;28;20047;-77
2022/03/16 04:16:03;;;;;;;38.05;19.05;;;3.00;99.90;;;;;;5098326;28;20036;-77
2022/03/16 04:18:29;;;;;;;84.32;21.27;;;3.00;99.90;;;;;;5098138;28;20043;-77
2022/03/16 04:20:55;;;;;;;166.30;25.42;;;3.10;99.90;;;;;;5098441;28;20486;-77
2022/03/16 04:23:21;;;;;;;65.60;21.50;;;3.00;99.90;;;;;;5097445;28;20044;-77
2022/03/16 04:25:47;;;;;;;57.38;23.38;;;2.90;99.90;;;;;;5114987;28;20043;-77
2022/03/16 04:28:13;;;;;;;89.03;24.13;;;2.90;99.90;;;;;;5114984;28;20491;-77
2022/03/16 04:30:38;;;;;;;78.22;25.40;;;3.00;99.90;;;;;;5114809;28;20031;-77
2022/03/16 04:33:04;;;;;;;135.93;24.65;;;2.90;99.90;;;;;;5114708;28;20050;-77
2022/03/16 04:35:30;;;;;;;164.23;25.00;;;3.00;99.90;;;;;;5064426;28;20071;-77
2022/03/16 04:37:56;;;;;;;126.40;25.63;;;3.10;99.90;;;;;;5114115;28;20040;-77
2022/03/16 04:40:22;;;;;;;131.82;25.40;;;3.00;99.90;;;;;;5098177;28;20035;-77
2022/03/16 04:42:47;;;;;;;107.28;25.27;;;3.00;99.90;;;;;;5097562;28;20065;-77
2022/03/16 04:45:13;;;;;;;159.23;27.85;;;3.00;99.90;;;;;;5097665;28;20032;-77
2022/03/16 04:47:39;;;;;;;204.25;29.50;;;2.90;99.90;;;;;;5097449;28;20043;-77
2022/03/16 04:50:05;;;;;;;132.27;27.30;;;2.80;99.90;;;;;;5114777;28;20039;-77
2022/03/16 04:52:32;;;;;;;128.05;27.40;;;2.80;99.90;;;;;;5113444;28;20119;-77
2022/03/16 04:54:58;;;;;;;97.47;28.52;;;2.90;99.90;;;;;;5114467;28;20072;-77
2022/03/16 04:57:24;;;;;;;93.15;27.73;;;2.80;99.90;;;;;;5114317;28;20039;-77
2022/03/16 04:59:49;;;;;;;33.65;25.52;;;2.70;99.90;;;;;;5114414;28;20058;-77
2022/03/16 05:02:15;;;;;;;43.20;24.48;;;2.80;99.90;;;;;;5097308;28;20521;-77
2022/03/16 05:04:41;;;;;;;38.50;24.42;;;2.70;99.90;;;;;;5064017;28;20130;-77
2022/03/16 05:07:06;;;;;;;68.20;25.10;;;2.70;99.90;;;;;;5096528;28;20051;-77
2022/03/16 05:09:32;;;;;;;49.47;24.85;;;2.70;99.90;;;;;;5096958;28;20108;-77
2022/03/16 05:11:58;;;;;;;39.40;25.67;;;2.90;99.90;;;;;;5097115;28;20495;-77
2022/03/16 05:14:24;;;;;;;123.32;26.80;;;2.80;99.90;;;;;;5097516;28;20043;-77
2022/03/16 05:16:49;;;;;;;290.00;41.20;;;2.70;99.90;;;;;;5096919;28;20039;-77
2022/03/16 05:19:15;;;;;;;27.85;21.50;;;2.70;99.90;;;;;;5114035;28;20044;-77
2022/03/16 05:21:41;;;;;;;23.05;20.25;;;2.60;99.90;;;;;;5096052;28;20769;-77
2022/03/16 05:24:06;;;;;;;57.63;24.83;;;2.70;99.90;;;;;;5097044;28;20483;-77
2022/03/16 05:26:32;;;;;;;49.03;22.88;;;2.80;99.90;;;;;;5096994;28;20047;-77
2022/03/16 05:28:58;;;;;;;48.35;25.95;;;2.80;99.90;;;;;;5113875;28;20082;-77
2022/03/16 05:31:24;;;;;;;28.77;21.77;;;2.80;99.90;;;;;;5113480;28;20036;-77
2022/03/16 05:33:50;;;;;;;19.45;17.45;;;2.70;99.90;;;;;;5097025;28;20031;-77
2022/03/16 05:36:16;;;;;;;38.85;22.55;;;2.70;99.90;;;;;;5096321;28;20039;-77
2022/03/16 05:38:42;;;;;;;36.25;23.15;;;2.80;99.90;;;;;;5113419;28;20044;-77
2022/03/16 05:41:08;;;;;;;49.20;22.83;;;3.60;99.90;;;;;;5096436;28;20063;-77
2022/03/16 05:43:33;;;;;;;41.80;21.80;;;3.00;99.90;;;;;;5096478;28;20044;-77
2022/03/16 05:46:01;;;;;;;74.88;23.45;;;2.90;99.90;;;;;;5113469;28;20047;-77
2022/03/16 05:48:27;;;;;;;65.88;25.55;;;3.10;99.90;;;;;;5096515;28;20046;-77
2022/03/16 05:50:52;;;;;;;58.78;25.92;;;2.90;99.90;;;;;;5113257;28;20032;-79
2022/03/16 05:53:18;;;;;;;60.10;27.73;;;3.00;99.90;;;;;;5107365;28;20119;-78
2022/03/16 05:55:44;;;;;;;75.45;28.73;;;2.90;99.90;;;;;;5095775;28;20035;-79
2022/03/16 05:58:10;;;;;;;89.43;30.63;;;3.00;99.90;;;;;;5096955;28;20045;-79
2022/03/16 06:00:37;;;;;;;69.00;33.10;;;3.00;99.90;;;;;;5113386;28;20126;-78
2022/03/16 06:03:03;;;;;;;95.40;37.03;;;3.00;99.90;;;;;;5096435;28;20143;-82
2022/03/16 06:05:30;;;;;;;64.18;40.45;;;3.10;99.90;;;;;;5096126;28;20071;-78
2022/03/16 06:07:56;;;;;;;72.45;39.45;;;3.10;99.90;;;;;;5086293;28;20036;-79
2022/03/16 06:10:22;;;;;;;64.72;37.92;;;3.20;99.90;;;;;;5112260;28;20047;-79
2022/03/16 06:12:53;;;;;;;71.57;37.90;;;3.20;99.90;;;;;;5113518;28;20093;-79
2022/03/16 06:15:19;;;;;;;66.82;36.88;;;3.20;99.90;;;;;;5096253;28;20398;-78
2022/03/16 06:17:45;;;;;;;71.63;36.45;;;3.20;99.90;;;;;;5092664;28;20036;-78
2022/03/16 06:20:11;;;;;;;86.80;34.28;;;3.20;99.90;;;;;;5094760;28;20490;-78
2022/03/16 06:22:37;;;;;;;69.53;35.55;;;3.30;99.90;;;;;;5111672;28;20559;-78
2022/03/16 06:25:02;;;;;;;76.80;35.38;;;3.30;99.90;;;;;;5108209;27;20032;-83
2022/03/16 06:27:29;;;;;;;57.85;36.45;;;3.30;99.90;;;;;;5096222;28;20533;-78
2022/03/16 06:29:54;;;;;;;61.13;36.85;;;3.90;99.90;;;;;;5095734;28;20035;-78
2022/03/16 06:32:20;;;;;;;63.08;38.25;;;3.30;99.90;;;;;;5095018;27;20035;-78
2022/03/16 06:34:46;;;;;;;76.65;37.50;;;3.40;99.90;;;;;;5133666;27;20039;-78
2022/03/16 06:37:12;;;;;;;67.05;37.58;;;3.40;99.90;;;;;;5115320;27;20030;-78
2022/03/16 06:39:38;;;;;;;65.30;39.28;;;3.40;99.90;;;;;;5098926;27;20039;-78
2022/03/16 06:42:04;;;;;;;65.28;40.60;;;3.40;99.90;;;;;;5095531;28;20039;-78
2022/03/16 06:44:30;;;;;;;68.85;42.35;;;3.50;99.90;;;;;;5103833;27;20392;-78
2022/03/16 06:46:56;;;;;;;62.28;41.63;;;3.50;99.90;;;;;;5110228;27;20046;-78
2022/03/16 06:49:22;;;;;;;69.68;43.72;;;3.60;99.90;;;;;;5079985;27;20059;-78
2022/03/16 06:51:48;;;;;;;75.18;47.28;;;3.70;99.90;;;;;;5120027;27;20042;-78
2022/03/16 06:54:13;;;;;;;74.63;47.63;;;3.80;99.90;;;;;;5114736;27;20038;-78
2022/03/16 06:56:39;;;;;;;74.18;47.55;;;3.80;99.90;;;;;;5119999;27;20036;-78
2022/03/16 06:59:05;;;;;;;76.32;47.92;;;3.90;99.90;;;;;;5104389;28;20402;-78
2022/03/16 07:01:30;;;;;;;71.00;45.95;;;4.00;99.90;;;;;;5121140;27;20498;-79
2022/03/16 07:03:56;;;;;;;71.57;46.85;;;4.10;99.90;;;;;;5079629;28;20051;-81
2022/03/16 07:06:22;;;;;;;75.60;49.30;;;4.10;99.90;;;;;;5116530;28;20044;-80
2022/03/16 07:08:49;;;;;;;68.85;46.30;;;4.20;99.90;;;;;;5078713;28;20151;-81
2022/03/16 07:11:17;;;;;;;75.93;48.38;;;4.30;99.90;;;;;;5079566;28;20047;-80
2022/03/16 07:14:30;;;;;;;64.30;45.47;;;4.30;99.90;;;;;;5095825;28;20502;-79
2022/03/16 07:16:29;;;;;;;63.22;43.65;;;4.30;99.90;;;;;;5083660;28;20042;-80
2022/03/16 07:18:55;;;;;;;59.80;41.17;;;4.40;99.90;;;;;;5094530;28;20092;-80
2022/03/16 07:21:21;;;;;;;59.65;39.75;;;5.00;99.90;;;;;;5111767;28;20054;-81
2022/03/16 07:23:47;;;;;;;58.35;40.92;;;4.40;99.90;;;;;;5112816;28;20487;-80
2022/03/16 07:26:13;;;;;;;58.22;40.97;;;4.40;99.90;;;;;;5112865;28;20036;-80
2022/03/16 07:28:38;;;;;;;58.50;41.22;;;4.40;99.90;;;;;;5094900;28;20038;-80
2022/03/16 07:31:04;;;;;;;56.25;41.17;;;4.50;99.90;;;;;;5095484;28;20407;-80
2022/03/16 07:33:30;;;;;;;57.53;41.17;;;4.50;99.90;;;;;;5095395;28;20081;-80
2022/03/16 07:35:56;;;;;;;53.78;40.28;;;4.60;99.90;;;;;;5078741;28;20035;-78
2022/03/16 07:38:21;;;;;;;58.78;42.35;;;4.70;99.90;;;;;;5081442;28;20127;-78
2022/03/16 07:40:47;;;;;;;54.92;38.53;;;4.70;99.90;;;;;;5065355;28;20036;-77
2022/03/16 07:43:14;;;;;;;54.97;40.17;;;4.90;99.90;;;;;;5080953;28;20044;-77
2022/03/16 07:45:40;;;;;;;53.80;36.83;;;5.00;99.90;;;;;;5078637;28;20044;-77
2022/03/16 07:48:06;;;;;;;54.67;40.88;;;5.10;99.90;;;;;;5112680;28;20079;-77
2022/03/16 07:50:32;;;;;;;59.65;44.85;;;5.20;99.90;;;;;;5097661;28;20137;-77
2022/03/16 07:52:58;;;;;;;60.15;43.47;;;5.30;99.90;;;;;;5114164;28;20436;-77
2022/03/16 07:55:24;;;;;;;58.92;44.08;;;5.50;99.90;;;;;;5097897;28;20028;-77
2022/03/16 07:57:52;;;;;;;60.22;45.67;;;5.60;99.90;;;;;;5114942;28;20402;-77
2022/03/16 08:00:18;;;;;;;55.83;42.67;;;5.70;99.90;;;;;;5112670;28;20031;-79
2022/03/16 08:02:44;;;;;;;53.60;41.88;;;5.80;99.90;;;;;;5102067;28;20035;-82
2022/03/16 08:05:10;;;;;;;45.95;35.67;;;6.00;99.90;;;;;;5095526;28;20036;-80
2022/03/16 08:07:36;;;;;;;49.13;37.38;;;6.10;99.90;;;;;;5101091;28;20115;-81
2022/03/16 08:10:02;;;;;;;48.08;36.63;;;6.20;99.90;;;;;;5113225;27;20094;-81
2022/03/16 08:12:28;;;;;;;52.70;39.20;;;6.20;99.90;;;;;;5116509;27;20035;-80
2022/03/16 08:14:54;;;;;;;49.60;36.55;;;6.30;99.90;;;;;;5102445;27;20039;-80
2022/03/16 08:17:20;;;;;;;48.13;36.05;;;6.60;99.90;;;;;;5081842;27;20042;-80
2022/03/16 08:19:46;;;;;;;48.60;37.50;;;6.50;99.90;;;;;;5126547;27;20051;-80
2022/03/16 08:22:11;;;;;;;52.70;36.67;;;6.60;99.90;;;;;;5114691;28;20039;-80
2022/03/16 08:24:37;;;;;;;47.50;37.47;;;7.00;99.90;;;;;;5115513;28;20521;-80
2022/03/16 08:27:03;;;;;;;52.50;38.38;;;6.70;99.90;;;;;;5081843;28;20048;-80
2022/03/16 08:29:29;;;;;;;48.60;36.35;;;6.80;99.90;;;;;;5115367;28;20040;-80
2022/03/16 08:31:57;;;;;;;54.40;39.88;;;6.90;99.90;;;;;;5081396;28;20162;-80
2022/03/16 08:34:23;;;;;;;48.13;34.53;;;7.10;99.90;;;;;;5115561;28;20039;-80
2022/03/16 08:36:51;;;;;;;47.10;34.70;;;7.30;99.90;;;;;;5114291;28;20043;-80
2022/03/16 08:39:16;;;;;;;49.72;37.35;;;7.40;99.90;;;;;;5115315;28;20052;-80
2022/03/16 08:41:43;;;;;;;53.38;39.22;;;7.60;99.90;;;;;;5113082;28;20051;-80
2022/03/16 08:44:08;;;;;;;50.40;36.03;;;7.90;99.90;;;;;;5097752;28;20039;-80
2022/03/16 08:46:34;;;;;;;51.15;34.20;;;8.10;99.90;;;;;;5097482;28;20031;-80
2022/03/16 08:49:00;;;;;;;45.55;33.50;;;8.40;99.90;;;;;;5097614;28;20052;-80
2022/03/16 08:51:26;;;;;;;41.78;30.25;;;8.50;99.90;;;;;;5113248;28;20092;-80
2022/03/16 08:53:52;;;;;;;43.25;31.15;;;8.80;99.90;;;;;;5097608;28;20115;-80
2022/03/16 08:56:17;;;;;;;43.67;32.10;;;9.00;99.90;;;;;;5097358;28;20050;-80
2022/03/16 08:58:43;;;;;;;43.45;30.55;;;9.10;99.90;;;;;;5097660;28;20109;-80
2022/03/16 09:01:09;;;;;;;39.65;28.38;;;9.30;99.90;;;;;;5064090;28;20036;-80
2022/03/16 09:03:35;;;;;;;37.25;28.17;;;9.40;99.90;;;;;;5097341;28;20122;-80
2022/03/16 09:06:02;;;;;;;32.72;22.40;;;9.60;99.90;;;;;;5116545;27;20542;-81
2022/03/16 09:08:28;;;;;;;33.53;24.15;;;9.70;99.90;;;;;;5079527;28;20035;-81
2022/03/16 09:10:56;;;;;;;32.67;23.00;;;9.90;99.90;;;;;;5091569;28;20499;-81
2022/03/16 09:13:22;;;;;;;33.00;25.20;;;10.00;99.90;;;;;;5077210;28;20412;-81
2022/03/16 09:15:51;;;;;;;32.00;25.05;;;10.10;99.90;;;;;;5085705;28;20032;-80
2022/03/16 09:18:18;;;;;;;29.33;20.00;;;10.40;99.90;;;;;;5064456;28;20044;-81
2022/03/16 09:20:44;;;;;;;29.42;19.98;;;10.50;99.90;;;;;;5060270;28;20051;-81
2022/03/16 09:23:10;;;;;;;26.48;19.70;;;10.50;99.90;;;;;;5077440;28;20135;-80
2022/03/16 09:25:36;;;;;;;25.33;19.05;;;10.60;99.90;;;;;;5097016;28;20126;-80
2022/03/16 09:28:02;;;;;;;27.40;20.15;;;10.70;99.90;;;;;;5080191;28;20363;-80
2022/03/16 09:30:28;;;;;;;25.77;19.00;;;10.80;99.90;;;;;;5113953;28;20089;-80
2022/03/16 09:32:57;;;;;;;27.40;19.02;;;10.90;99.90;;;;;;5113644;28;20040;-80
2022/03/16 09:35:23;;;;;;;25.27;17.50;;;10.90;99.90;;;;;;5093531;28;20044;-80
2022/03/16 09:37:50;;;;;;;25.40;17.88;;;11.10;99.90;;;;;;5075913;28;20436;-80
2022/03/16 09:40:17;;;;;;;21.95;15.32;;;11.20;99.90;;;;;;5076856;28;20402;-80
2022/03/16 09:42:45;;;;;;;20.95;15.00;;;11.20;99.90;;;;;;5086057;28;20036;-81
2022/03/16 09:45:19;;;;;;;17.98;12.10;;;11.30;99.90;;;;;;5093532;28;20192;-80
2022/03/16 09:47:49;;;;;;;19.30;12.68;;;11.50;99.90;;;;;;5092951;28;20051;-80
2022/03/16 09:50:19;;;;;;;13.45;5.72;;;11.60;99.90;;;;;;5093118;28;20036;-80
2022/03/16 09:52:46;;;;;;;14.18;9.20;;;11.70;99.90;;;;;;5099047;28;20057;-80
2022/03/16 09:55:13;;;;;;;16.08;10.32;;;11.80;99.90;;;;;;5094129;28;20047;-80
2022/03/16 09:57:39;;;;;;;13.45;7.93;;;11.70;99.50;;;;;;5080801;28;20475;-80
2022/03/16 10:00:06;;;;;;;15.13;7.65;;;11.70;98.90;;;;;;5094688;28;20044;-80
2022/03/16 10:02:32;;;;;;;12.65;7.25;;;11.70;98.50;;;;;;5093656;28;20028;-80
2022/03/16 10:04:57;;;;;;;16.25;8.45;;;11.70;98.20;;;;;;5106992;28;20035;-80
2022/03/16 10:07:29;;;;;;;14.65;8.60;;;11.90;99.90;;;;;;5061786;28;20479;-80
2022/03/16 10:15:24;;;;;;;18.48;12.27;;;12.20;97.10;;;;;;5118159;27;20405;-80
2022/03/16 10:17:59;;;;;;;12.43;7.18;;;12.30;99.30;;;;;;5090523;27;20038;-80
2022/03/16 10:20:39;;;;;;;17.35;10.82;;;12.50;96.70;;;;;;5124096;27;20070;-80
2022/03/16 10:23:29;;;;;;;19.38;12.73;;;12.60;96.50;;;;;;5108309;27;20430;-80
2022/03/16 10:25:59;;;;;;;18.67;11.48;;;12.70;99.10;;;;;;5117923;27;20127;-80
2022/03/16 10:28:32;;;;;;;19.38;11.90;;;12.80;96.40;;;;;;5095160;27;20176;-80
2022/03/16 10:31:03;;;;;;;15.77;8.90;;;12.90;96.10;;;;;;5102929;27;20406;-80
2022/03/16 10:33:46;;;;;;;18.38;9.90;;;13.00;94.60;;;;;;5120940;27;20038;-80
2022/03/16 10:36:15;;;;;;;18.40;10.35;;;12.90;94.40;;;;;;5127944;27;20401;-80
2022/03/16 10:38:53;;;;;;;12.20;5.85;;;12.80;94.70;;;;;;5123480;27;20035;-80
2022/03/16 10:47:19;;;;;;;13.48;7.70;;;12.80;93.10;;;;;;5120321;27;20062;-80
2022/03/16 10:49:48;;;;;;;19.13;11.77;;;12.80;93.40;;;;;;5106347;27;20036;-80
2022/03/16 10:52:17;;;;;;;14.73;6.57;;;12.80;94.10;;;;;;5119401;27;20039;-80
2022/03/16 10:54:44;;;;;;;20.00;11.27;;;12.70;92.50;;;;;;5114540;27;20035;-79
2022/03/16 10:57:12;;;;;;;15.05;7.22;;;12.70;93.50;;;;;;5124055;27;20455;-79
2022/03/16 10:59:40;;;;;;;21.00;13.18;;;12.80;92.50;;;;;;5126977;27;20047;-80
2022/03/16 11:02:12;;;;;;;20.15;11.65;;;12.80;95.50;;;;;;5117329;27;20039;-80
2022/03/16 11:04:45;;;;;;;18.05;10.57;;;12.90;94.30;;;;;;5090757;27;20031;-80
2022/03/16 11:07:11;;;;;;;12.68;7.22;;;13.10;90.50;;;;;;5117510;27;20490;-80
2022/03/16 11:09:38;;;;;;;12.82;7.75;;;13.10;88.60;;;;;;5126125;27;20441;-80
2022/03/16 11:14:51;;;;;;;17.95;10.35;;;13.30;86.40;;;;;;5129780;27;20042;-80
2022/03/16 11:17:18;;;;;;;15.60;10.50;;;13.30;87.80;;;;;;5115549;27;20039;-80
2022/03/16 11:19:46;;;;;;;16.63;9.38;;;13.50;88.40;;;;;;5107982;27;20485;-80
2022/03/16 11:22:24;;;;;;;16.88;9.60;;;13.60;87.40;;;;;;5112219;27;20554;-80
2022/03/16 11:25:15;;;;;;;16.80;9.43;;;13.60;81.20;;;;;;5130745;27;20047;-80
2022/03/16 11:27:50;;;;;;;15.15;8.23;;;13.50;79.10;;;;;;5115533;27;20477;-80
2022/03/16 11:30:33;;;;;;;14.80;9.85;;;13.50;81.90;;;;;;5120862;27;20031;-80
2022/03/16 11:33:05;;;;;;;17.27;10.55;;;13.50;82.40;;;;;;5105105;27;20038;-80
2022/03/16 11:35:32;;;;;;;;;;;13.60;80.10;;;;;;5105719;27;20075;-80
2022/03/16 11:38:13;;;;;;;17.08;10.00;;;13.70;81.20;;;;;;5103969;27;19915;-80
2022/03/16 11:40:41;;;;;;;21.20;12.20;;;13.90;82.30;;;;;;5122514;27;20484;-80
2022/03/16 11:43:12;;;;;;;11.38;5.05;;;13.80;79.20;;;;;;5125552;27;20469;-79
2022/03/16 11:45:48;;;;;;;19.27;12.85;;;13.80;76.30;;;;;;5133063;27;20090;-79
2022/03/16 11:48:33;;;;;;;17.33;10.30;;;13.70;81.60;;;;;;5127260;27;20039;-79
2022/03/16 11:51:16;;;;;;;22.38;13.07;;;13.90;78.90;;;;;;5115056;27;20043;-79
2022/03/16 11:53:54;;;;;;;21.23;12.52;;;13.90;78.90;;;;;;5110478;27;20041;-79
2022/03/16 11:56:31;;;;;;;18.52;11.05;;;14.00;80.70;;;;;;5116167;27;20031;-80
2022/03/16 11:59:06;;;;;;;14.93;6.75;;;14.10;79.00;;;;;;5125926;27;20065;-80
2022/03/16 12:01:33;;;;;;;22.33;13.75;;;14.20;77.70;;;;;;5111493;27;20035;-80
2022/03/16 12:04:19;;;;;;;12.25;4.97;;;14.20;80.10;;;;;;5124864;27;20042;-80
2022/03/16 12:07:05;;;;;;;18.30;12.05;;;14.20;77.40;;;;;;5125676;27;20125;-80
2022/03/16 12:09:45;;;;;;;20.63;12.50;;;14.20;77.40;;;;;;5114996;27;20031;-80
2022/03/16 12:15:08;;;;;;;19.40;9.75;;;14.30;78.70;;;;;;5134729;27;20396;-79
2022/03/16 12:17:34;;;;;;;16.75;8.88;;;14.20;77.80;;;;;;5116399;27;20041;-79
2022/03/16 12:20:12;;;;;;;23.17;13.02;;;14.20;75.70;;;;;;5121575;27;20031;-79
2022/03/16 12:22:48;;;;;;;21.05;14.80;;;14.10;77.60;;;;;;5111610;27;20138;-79
2022/03/16 12:25:29;;;;;;;17.27;9.48;;;14.20;79.00;;;;;;5139425;27;20397;-79
2022/03/16 12:31:18;;;;;;;21.23;12.47;;;14.40;74.90;;;;;;5122532;27;20405;-80
2022/03/16 12:33:52;;;;;;;13.57;6.60;;;14.30;77.80;;;;;;5139340;27;20126;-80
2022/03/16 12:36:30;;;;;;;17.42;10.07;;;14.40;75.90;;;;;;5137124;27;20482;-80
2022/03/16 12:39:04;;;;;;;12.20;5.50;;;14.40;74.30;;;;;;5121998;27;20424;-80
2022/03/16 12:44:19;;;;;;;14.48;7.72;;;14.40;71.80;;;;;;5137993;27;20038;-80
2022/03/16 12:47:06;;;;;;;16.90;8.45;;;14.40;72.00;;;;;;5104269;27;20125;-80
2022/03/16 12:49:43;;;;;;;16.10;8.10;;;14.40;69.20;;;;;;5121160;27;20074;-80
2022/03/16 12:52:10;;;;;;;21.50;13.88;;;14.40;69.30;;;;;;5120406;27;20035;-80
2022/03/16 12:54:37;;;;;;;20.85;13.93;;;14.40;71.70;;;;;;5138816;27;20485;-80
2022/03/16 12:57:09;;;;;;;20.92;13.35;;;14.60;73.00;;;;;;5121463;27;20087;-80
2022/03/16 12:59:52;;;;;;;22.65;14.52;;;14.60;72.50;;;;;;5138814;27;20569;-80